Terminal Aerodrome Forecast
Issued by NWS

Home | Current Version | Previous Version | Text Only | Print | Product List | Glossary On
Versions: 1 2 3 4 5 6 7 8 9 10 11 12
000
FTUS42 TJSJ 020500
TAFIST
TAF
TIST 020525Z 0206/0306 10007KT P6SM VCSH SCT030
     FM021450 13011KT P6SM VCSH SCT025 SCT050
     FM022250 09006KT P6SM SCT030=

USA.gov is the U.S. government's official web portal to all federal, state and local government web resources and services.